Mc Faddin, Texas
Current Conditions -  °F | °C
As of 11:50 AM on Sunday 21 Dec 2014 (Local Time) from KPKV Reporting Station
Overcast Overcast  
Wind Chill: 14°   Ceiling: 7000
Heat Index: 14°   Visibility: 10mi
Dew Point: 11°   Wind: 6mph
Humidity: 85%   Direction: 50°NE
Pressure: 30.07"   Gusts: NA
Location:  28.5526°N, 97.018°W
Report Text: KPKV 211750Z AUTO 05005KT 10SM OVC070 14/11 A3007 RMK AO2 T01350111 10135 20111
Loading
Personal Weather Stations






























Interactive Weather Map New forecast layout! Learn more

10-Day Weather Forecast

Advertisements
Track Severe Weather on mobile